Time;durP1;ratioP1;P1;durP2;ratioP2;P2;SDS_P1;SDS_P2;PMS_P1;PMS_P2;Temp;Humidity;BMP_temperature;BMP_pressure;BME280_temperature;BME280_humidity;BME280_pressure;Samples;Min_cycle;Max_cycle;Signal;HPM_P1;HPM_P2
2023/11/24 00:01:09;;;;;;;2.80;1.40;;;22.70;66.70;;;;;;5094703;28;20546;-84
2023/11/24 00:03:36;;;;;;;1.20;1.00;;;22.70;66.80;;;;;;5095123;28;20467;-84
2023/11/24 00:06:04;;;;;;;1.40;1.30;;;22.70;66.80;;;;;;5094520;28;20430;-84
2023/11/24 00:08:33;;;;;;;1.47;1.10;;;22.70;66.80;;;;;;5094431;28;20490;-84
2023/11/24 00:11:03;;;;;;;1.53;1.37;;;22.70;66.80;;;;;;5094142;28;20800;-84
2023/11/24 00:13:30;;;;;;;1.73;1.20;;;22.70;66.70;;;;;;5093812;28;21110;-84
2023/11/24 00:15:57;;;;;;;2.23;1.40;;;22.70;66.80;;;;;;5094124;28;20435;-84
2023/11/24 00:18:24;;;;;;;1.33;1.20;;;22.70;66.80;;;;;;5093993;28;20439;-84
2023/11/24 00:20:51;;;;;;;1.60;1.20;;;22.60;66.80;;;;;;5094609;28;20436;-86
2023/11/24 00:23:19;;;;;;;2.37;1.23;;;22.70;66.80;;;;;;5093877;28;20451;-84
2023/11/24 00:25:46;;;;;;;1.93;1.40;;;22.60;66.80;;;;;;5094250;28;20462;-84
2023/11/24 00:28:13;;;;;;;1.30;1.03;;;22.60;66.70;;;;;;5093955;28;20475;-84
2023/11/24 00:30:40;;;;;;;1.30;1.20;;;22.60;66.70;;;;;;5093959;28;20455;-84
2023/11/24 00:33:06;;;;;;;1.67;1.40;;;22.60;66.60;;;;;;5093967;28;20435;-95
2023/11/24 00:35:33;;;;;;;1.23;1.07;;;22.60;66.70;;;;;;5094010;28;20792;-83
2023/11/24 00:38:00;;;;;;;1.20;1.10;;;22.60;66.70;;;;;;5093225;28;20441;-84
2023/11/24 00:40:28;;;;;;;2.17;1.50;;;22.60;66.70;;;;;;5093677;28;20918;-84
2023/11/24 00:42:55;;;;;;;1.40;1.20;;;22.60;66.70;;;;;;5093856;28;20498;-84
2023/11/24 00:45:22;;;;;;;2.27;1.10;;;22.50;66.60;;;;;;5093789;28;21007;-84
2023/11/24 00:47:48;;;;;;;1.60;1.10;;;22.50;67.50;;;;;;5093812;28;20998;-84
2023/11/24 00:50:16;;;;;;;1.30;1.00;;;22.50;66.60;;;;;;5093516;28;20432;-84
2023/11/24 00:52:42;;;;;;;1.20;1.03;;;22.50;66.60;;;;;;5093546;28;20455;-84
2023/11/24 00:55:09;;;;;;;1.40;1.00;;;22.50;66.60;;;;;;5093500;28;20439;-84
2023/11/24 00:57:38;;;;;;;1.83;1.23;;;22.60;66.80;;;;;;5093540;28;20432;-84
2023/11/24 01:00:07;;;;;;;2.60;1.17;;;22.50;66.60;;;;;;5093330;28;20486;-84
2023/11/24 01:02:36;;;;;;;2.13;1.30;;;22.50;66.60;;;;;;5093515;28;20443;-84
2023/11/24 01:05:04;;;;;;;1.20;0.90;;;22.50;66.60;;;;;;5093982;28;20513;-84
2023/11/24 01:07:31;;;;;;;1.50;1.10;;;22.50;66.60;;;;;;5093241;28;20462;-84
2023/11/24 01:09:58;;;;;;;2.00;1.23;;;22.40;66.50;;;;;;5093303;28;20590;-84
2023/11/24 01:12:24;;;;;;;1.30;1.00;;;22.40;66.60;;;;;;5093016;28;20436;-84
2023/11/24 01:14:53;;;;;;;1.50;1.40;;;22.40;66.60;;;;;;5093219;28;20471;-84
2023/11/24 01:17:20;;;;;;;1.60;1.00;;;22.40;66.60;;;;;;5093272;28;20844;-84
2023/11/24 01:19:47;;;;;;;1.80;1.10;;;22.40;66.50;;;;;;5093263;28;20439;-96
2023/11/24 01:22:15;;;;;;;1.57;1.23;;;22.40;66.50;;;;;;5093516;28;20540;-84
2023/11/24 01:24:44;;;;;;;1.50;1.13;;;22.40;66.50;;;;;;5093465;28;20447;-87
2023/11/24 01:27:11;;;;;;;1.53;1.20;;;22.40;66.50;;;;;;5093291;28;20616;-84
2023/11/24 01:29:38;;;;;;;1.30;0.93;;;22.40;66.60;;;;;;5092901;28;20890;-84
2023/11/24 01:32:07;;;;;;;1.50;1.10;;;22.40;66.60;;;;;;5093176;28;20432;-84
2023/11/24 01:34:34;;;;;;;1.50;0.90;;;22.30;66.50;;;;;;5093050;28;20451;-96
2023/11/24 01:37:01;;;;;;;1.20;1.00;;;22.30;66.60;;;;;;5093108;28;20436;-84
2023/11/24 01:39:27;;;;;;;1.20;0.93;;;22.30;66.50;;;;;;5093117;28;20998;-83
2023/11/24 01:41:54;;;;;;;1.43;1.20;;;22.30;66.50;;;;;;5093431;28;20438;-84
2023/11/24 01:44:22;;;;;;;1.40;1.30;;;22.30;66.60;;;;;;5093052;28;20446;-84
2023/11/24 01:46:49;;;;;;;1.50;1.07;;;22.30;66.60;;;;;;5092858;28;21108;-84
2023/11/24 01:49:17;;;;;;;1.10;0.90;;;22.30;66.60;;;;;;5094301;28;20497;-84
2023/11/24 01:51:44;;;;;;;1.10;0.90;;;22.30;66.70;;;;;;5096860;28;20435;-84
2023/11/24 01:54:11;;;;;;;2.77;1.20;;;22.30;66.60;;;;;;5096866;28;20474;-96
2023/11/24 01:56:38;;;;;;;1.50;1.10;;;22.30;66.50;;;;;;5096865;28;20442;-84
2023/11/24 01:59:06;;;;;;;1.13;1.00;;;22.30;66.40;;;;;;5096787;28;20440;-84
2023/11/24 02:01:34;;;;;;;1.30;0.90;;;22.30;66.50;;;;;;5096697;28;20460;-84
2023/11/24 02:04:02;;;;;;;1.40;1.10;;;22.40;66.50;;;;;;5096583;28;20431;-83
2023/11/24 02:06:30;;;;;;;1.10;1.00;;;22.30;66.40;;;;;;5096739;28;20436;-83
2023/11/24 02:08:57;;;;;;;1.77;1.03;;;22.30;66.30;;;;;;5096721;28;20479;-84
2023/11/24 02:11:24;;;;;;;1.33;1.00;;;22.40;66.30;;;;;;5096488;28;20954;-84
2023/11/24 02:13:51;;;;;;;1.73;0.90;;;22.30;66.20;;;;;;5096182;28;20493;-84
2023/11/24 02:16:19;;;;;;;1.50;1.00;;;22.30;66.30;;;;;;5096272;28;20538;-84
2023/11/24 02:18:46;;;;;;;1.20;0.90;;;22.30;66.20;;;;;;5096253;28;20942;-83
2023/11/24 02:21:13;;;;;;;2.37;1.20;;;22.30;66.20;;;;;;5096330;28;20543;-84
2023/11/24 02:23:42;;;;;;;1.57;1.40;;;22.30;66.30;;;;;;5096347;28;20441;-96
2023/11/24 02:26:09;;;;;;;1.50;1.07;;;22.30;66.20;;;;;;5096053;28;20471;-84
2023/11/24 02:28:37;;;;;;;1.50;0.90;;;22.30;66.20;;;;;;5096177;28;20514;-84
2023/11/24 02:31:04;;;;;;;1.20;1.00;;;22.30;66.20;;;;;;5096128;28;20456;-88
2023/11/24 02:33:33;;;;;;;1.93;1.00;;;22.30;66.20;;;;;;5096019;28;20440;-84
2023/11/24 02:36:05;;;;;;;1.30;0.87;;;22.30;66.20;;;;;;5096246;28;20494;-84
2023/11/24 02:38:32;;;;;;;1.20;0.90;;;22.30;66.10;;;;;;5095940;28;20847;-84
2023/11/24 02:41:00;;;;;;;1.40;0.90;;;22.30;66.20;;;;;;5096163;28;20435;-84
2023/11/24 02:43:27;;;;;;;1.33;0.80;;;22.30;66.20;;;;;;5096023;28;20442;-84
2023/11/24 02:45:54;;;;;;;1.30;0.90;;;22.30;66.10;;;;;;5095680;28;20427;-83
2023/11/24 02:48:21;;;;;;;1.30;1.00;;;22.30;65.90;;;;;;5095632;28;20479;-84
2023/11/24 02:50:48;;;;;;;1.70;1.17;;;22.30;65.90;;;;;;5095625;28;20439;-84
2023/11/24 02:53:15;;;;;;;1.50;1.03;;;22.30;65.80;;;;;;5095687;28;20439;-84
2023/11/24 02:55:43;;;;;;;1.93;1.23;;;22.40;65.90;;;;;;5095839;28;20497;-84
2023/11/24 02:58:11;;;;;;;1.90;1.03;;;22.30;65.80;;;;;;5095673;28;20443;-84
2023/11/24 03:00:38;;;;;;;1.87;1.00;;;22.30;65.90;;;;;;5095234;28;20466;-84
2023/11/24 03:03:05;;;;;;;1.10;0.83;;;22.30;65.80;;;;;;5095513;28;20980;-84
2023/11/24 03:05:32;;;;;;;1.20;0.90;;;22.30;65.90;;;;;;5095655;28;20841;-84
2023/11/24 03:07:59;;;;;;;1.40;1.00;;;22.30;65.90;;;;;;5095482;28;20976;-84
2023/11/24 03:10:26;;;;;;;1.20;1.00;;;22.40;66.00;;;;;;5095450;28;20479;-84
2023/11/24 03:12:53;;;;;;;1.73;0.87;;;22.30;65.80;;;;;;5095455;28;20521;-84
2023/11/24 03:15:21;;;;;;;1.60;0.90;;;22.40;65.80;;;;;;5095003;28;20463;-84
2023/11/24 03:17:48;;;;;;;1.23;1.00;;;22.40;65.80;;;;;;5095421;28;20440;-96
2023/11/24 03:20:15;;;;;;;1.10;0.90;;;22.40;65.80;;;;;;5095246;28;20428;-84
2023/11/24 03:22:42;;;;;;;1.20;0.97;;;22.30;65.60;;;;;;5095028;28;20443;-84
2023/11/24 03:25:10;;;;;;;1.40;1.00;;;22.30;65.70;;;;;;5095125;28;20926;-84
2023/11/24 03:27:37;;;;;;;1.20;1.00;;;22.40;65.70;;;;;;5095073;28;20931;-84
2023/11/24 03:30:04;;;;;;;1.60;1.00;;;22.30;65.60;;;;;;5094760;28;20480;-84
2023/11/24 03:32:33;;;;;;;1.30;0.90;;;22.40;65.80;;;;;;5095074;28;20435;-84
2023/11/24 03:34:59;;;;;;;1.83;1.13;;;22.30;65.70;;;;;;5095175;28;20969;-96
2023/11/24 03:37:26;;;;;;;2.33;1.00;;;22.40;65.70;;;;;;5094976;28;20438;-84
2023/11/24 03:39:53;;;;;;;1.50;0.97;;;22.40;65.70;;;;;;5094892;28;20454;-84
2023/11/24 03:42:21;;;;;;;1.20;1.00;;;22.40;65.50;;;;;;5095067;28;20834;-84
2023/11/24 03:44:48;;;;;;;1.40;0.83;;;22.40;65.70;;;;;;5094823;28;20444;-84
2023/11/24 03:47:15;;;;;;;1.10;0.80;;;22.40;65.70;;;;;;5094859;28;20794;-84
2023/11/24 03:49:43;;;;;;;1.10;0.80;;;22.40;65.60;;;;;;5094380;28;20479;-84
2023/11/24 03:52:10;;;;;;;1.10;0.90;;;22.40;65.60;;;;;;5094490;28;20803;-84
2023/11/24 03:54:37;;;;;;;1.30;0.87;;;22.40;65.60;;;;;;5094719;28;20931;-84
2023/11/24 03:57:05;;;;;;;1.67;1.23;;;22.40;65.70;;;;;;5094809;28;20427;-84
2023/11/24 03:59:31;;;;;;;1.30;0.97;;;22.40;65.60;;;;;;5094382;28;20802;-84
2023/11/24 04:01:58;;;;;;;1.63;0.90;;;22.40;65.60;;;;;;5094437;28;20798;-84
2023/11/24 04:04:25;;;;;;;1.50;1.10;;;22.40;65.50;;;;;;5094313;28;20454;-83
2023/11/24 04:06:53;;;;;;;1.40;1.00;;;22.40;65.50;;;;;;5094149;28;20440;-84
2023/11/24 04:09:20;;;;;;;1.50;0.93;;;22.40;65.40;;;;;;5094137;28;20561;-84
2023/11/24 04:11:47;;;;;;;1.13;0.73;;;22.40;65.50;;;;;;5093370;28;20440;-84
2023/11/24 04:14:14;;;;;;;1.30;0.90;;;22.40;65.40;;;;;;5093830;28;20467;-84
2023/11/24 04:16:41;;;;;;;1.67;0.97;;;22.40;65.50;;;;;;5094013;28;20522;-84
2023/11/24 04:19:08;;;;;;;1.30;1.00;;;22.40;65.40;;;;;;5093930;28;20497;-84
2023/11/24 04:21:35;;;;;;;1.30;0.80;;;22.40;65.50;;;;;;5094166;28;20447;-84
2023/11/24 04:24:04;;;;;;;1.03;0.73;;;22.40;65.60;;;;;;5093999;28;20462;-84
2023/11/24 04:26:31;;;;;;;1.10;0.80;;;22.40;65.60;;;;;;5093869;28;20432;-84
2023/11/24 04:28:58;;;;;;;1.30;0.90;;;22.40;65.60;;;;;;5093709;28;20479;-84
2023/11/24 04:31:25;;;;;;;1.10;0.70;;;22.30;65.50;;;;;;5093675;28;20466;-84
2023/11/24 04:33:51;;;;;;;1.30;1.00;;;22.40;65.50;;;;;;5093708;28;20804;-84
2023/11/24 04:36:18;;;;;;;1.60;1.00;;;22.30;65.50;;;;;;5093609;28;20431;-84
2023/11/24 04:38:46;;;;;;;1.20;0.90;;;22.30;65.40;;;;;;5093807;28;20543;-84
2023/11/24 04:41:14;;;;;;;1.70;0.80;;;22.40;65.40;;;;;;5093669;28;20432;-96
2023/11/24 04:43:41;;;;;;;1.10;0.93;;;22.30;65.50;;;;;;5093623;28;20432;-83
2023/11/24 04:46:08;;;;;;;1.00;0.70;;;22.40;65.50;;;;;;5093572;28;20438;-84
2023/11/24 04:48:37;;;;;;;1.00;0.70;;;22.30;66.30;;;;;;5093446;28;20438;-84
2023/11/24 04:51:04;;;;;;;1.10;0.80;;;22.30;65.50;;;;;;5093554;28;20435;-84
2023/11/24 04:53:31;;;;;;;1.27;0.90;;;22.40;65.60;;;;;;5093484;28;20467;-83
2023/11/24 04:55:58;;;;;;;1.03;0.80;;;22.40;65.60;;;;;;5093302;28;20435;-83
2023/11/24 04:58:26;;;;;;;1.10;0.83;;;22.30;65.50;;;;;;5093497;28;20865;-96
2023/11/24 05:00:52;;;;;;;1.00;0.70;;;22.40;65.50;;;;;;5093305;28;20452;-95
2023/11/24 05:03:19;;;;;;;1.27;0.90;;;22.30;65.40;;;;;;5094295;28;20921;-95
2023/11/24 05:05:46;;;;;;;1.20;0.83;;;22.40;65.50;;;;;;5094357;28;20925;-89
2023/11/24 05:08:13;;;;;;;1.17;0.80;;;22.40;65.40;;;;;;5094044;28;20910;-94
2023/11/24 05:10:40;;;;;;;1.10;0.90;;;22.40;65.40;;;;;;5093595;28;20479;-83
2023/11/24 05:13:07;;;;;;;1.20;0.80;;;22.40;65.30;;;;;;5094358;28;20557;-95
2023/11/24 05:15:35;;;;;;;1.80;0.80;;;22.40;65.30;;;;;;5093749;28;20550;-84
2023/11/24 05:18:04;;;;;;;1.10;0.80;;;22.40;65.30;;;;;;5085611;28;20437;-84
2023/11/24 05:20:30;;;;;;;1.33;0.73;;;22.40;65.40;;;;;;5093388;28;20883;-84
2023/11/24 05:22:57;;;;;;;1.10;0.80;;;22.40;65.30;;;;;;5093894;28;20446;-93
2023/11/24 05:25:24;;;;;;;1.20;0.83;;;22.40;66.10;;;;;;5097511;28;20446;-85
2023/11/24 05:27:51;;;;;;;1.53;0.90;;;22.40;65.30;;;;;;5096650;28;20451;-93
2023/11/24 05:30:17;;;;;;;1.00;0.70;;;22.50;65.20;;;;;;5097250;28;20493;-84
2023/11/24 05:32:46;;;;;;;1.10;0.80;;;22.50;66.10;;;;;;5097444;28;20517;-84
2023/11/24 05:35:13;;;;;;;1.40;0.80;;;22.50;65.20;;;;;;5097606;28;20961;-96
2023/11/24 05:37:39;;;;;;;1.20;0.70;;;22.50;65.20;;;;;;5097354;28;20439;-84
2023/11/24 05:40:08;;;;;;;1.00;0.80;;;22.50;65.40;;;;;;5097407;28;20942;-96
2023/11/24 05:42:35;;;;;;;1.87;0.93;;;22.50;65.00;;;;;;5097129;28;20447;-84
2023/11/24 05:45:03;;;;;;;2.00;1.00;;;22.50;65.00;;;;;;5098189;28;20948;-96
2023/11/24 05:47:31;;;;;;;1.10;0.80;;;22.50;65.10;;;;;;5097415;28;20880;-83
2023/11/24 05:50:00;;;;;;;1.20;0.80;;;22.50;65.00;;;;;;5097222;28;20479;-84
2023/11/24 05:52:26;;;;;;;1.53;0.80;;;22.50;65.00;;;;;;5097342;28;20460;-84
2023/11/24 05:54:57;;;;;;;1.67;0.80;;;22.50;64.90;;;;;;5097127;28;20458;-84
2023/11/24 05:57:24;;;;;;;1.50;1.20;;;22.50;65.00;;;;;;5097825;28;20471;-83
2023/11/24 05:59:50;;;;;;;1.10;0.80;;;22.60;65.20;;;;;;5097000;28;20467;-84
2023/11/24 06:02:17;;;;;;;1.50;1.00;;;22.50;65.10;;;;;;5097231;28;20432;-83
2023/11/24 06:04:44;;;;;;;2.70;1.23;;;22.60;65.30;;;;;;5097167;28;20447;-83
2023/11/24 06:07:12;;;;;;;1.47;1.00;;;22.50;65.10;;;;;;5096960;28;20526;-96
2023/11/24 06:09:39;;;;;;;1.30;0.83;;;22.50;65.10;;;;;;5096845;28;20471;-83
2023/11/24 06:12:07;;;;;;;1.20;0.80;;;22.50;65.00;;;;;;5096660;28;20449;-84
2023/11/24 06:14:34;;;;;;;1.83;1.00;;;22.60;65.10;;;;;;5096564;28;20883;-84
2023/11/24 06:17:02;;;;;;;1.30;0.80;;;22.60;65.10;;;;;;5096668;28;20446;-83
2023/11/24 06:19:29;;;;;;;1.03;0.73;;;22.60;65.10;;;;;;5097001;28;20435;-84
2023/11/24 06:21:55;;;;;;;1.13;0.87;;;22.60;65.10;;;;;;5096958;28;20445;-86
2023/11/24 06:24:23;;;;;;;3.23;0.70;;;22.60;65.30;;;;;;5096555;28;20436;-95
2023/11/24 06:26:51;;;;;;;1.40;0.83;;;22.60;65.20;;;;;;5096696;28;20450;-83
2023/11/24 06:29:17;;;;;;;1.40;0.80;;;22.60;65.20;;;;;;5096214;28;20435;-96
2023/11/24 06:31:44;;;;;;;1.13;0.90;;;22.60;65.20;;;;;;5096159;28;20446;-83
2023/11/24 06:34:11;;;;;;;2.03;1.03;;;22.60;65.20;;;;;;5096236;28;20435;-96
2023/11/24 06:36:38;;;;;;;2.00;0.87;;;22.60;65.00;;;;;;5094154;28;20443;-87
2023/11/24 06:39:10;;;;;;;1.00;0.60;;;22.60;65.00;;;;;;5101278;28;20836;-83
2023/11/24 06:41:38;;;;;;;1.40;0.93;;;22.60;64.90;;;;;;5097748;28;20857;-83
2023/11/24 06:44:06;;;;;;;1.50;0.87;;;22.60;65.00;;;;;;5097362;28;20446;-86
2023/11/24 06:46:33;;;;;;;3.33;0.80;;;22.60;65.10;;;;;;5097682;28;20469;-90
2023/11/24 06:49:00;;;;;;;1.10;0.80;;;22.60;64.10;;;;;;5099277;28;20772;-89
2023/11/24 06:51:27;;;;;;;1.53;0.80;;;22.60;64.20;;;;;;5097188;28;21016;-83
2023/11/24 06:53:54;;;;;;;1.50;0.70;;;22.60;65.10;;;;;;5095009;28;20993;-83
2023/11/24 06:56:21;;;;;;;1.23;0.90;;;22.60;65.10;;;;;;5095049;28;20454;-83
2023/11/24 06:58:54;;;;;;;2.47;0.80;;;22.60;65.00;;;;;;5095170;28;20435;-83
2023/11/24 07:01:30;;;;;;;1.20;0.80;;;22.60;65.00;;;;;;5095681;28;20463;-83
2023/11/24 07:03:58;;;;;;;1.30;0.80;;;22.60;65.10;;;;;;5095929;28;20442;-83
2023/11/24 07:06:24;;;;;;;2.33;0.90;;;22.70;65.20;;;;;;5095403;28;20432;-83
2023/11/24 07:08:52;;;;;;;1.80;0.77;;;22.60;65.20;;;;;;5095997;28;20446;-83
2023/11/24 07:11:19;;;;;;;2.13;1.27;;;22.50;65.10;;;;;;5093838;28;20483;-83
2023/11/24 07:13:46;;;;;;;1.23;0.90;;;22.50;65.20;;;;;;5093566;28;20966;-83
2023/11/24 07:16:15;;;;;;;1.10;0.90;;;22.50;65.20;;;;;;5094723;28;20774;-96
2023/11/24 07:18:41;;;;;;;1.20;0.90;;;22.50;65.30;;;;;;5094954;28;20953;-83
2023/11/24 07:21:08;;;;;;;1.70;1.20;;;22.50;65.40;;;;;;5094521;28;20455;-83
2023/11/24 07:23:37;;;;;;;1.00;0.70;;;22.50;65.30;;;;;;5094669;28;20454;-83
2023/11/24 07:26:04;;;;;;;1.60;1.00;;;22.50;65.30;;;;;;5094256;28;20978;-84
2023/11/24 07:28:31;;;;;;;1.60;0.90;;;22.50;65.00;;;;;;5096163;28;20442;-84
2023/11/24 07:30:58;;;;;;;2.03;0.90;;;22.50;65.30;;;;;;5093609;28;20483;-83
2023/11/24 07:33:27;;;;;;;1.10;0.90;;;22.60;65.40;;;;;;5093485;28;20444;-84
2023/11/24 07:35:54;;;;;;;1.53;0.80;;;22.50;65.50;;;;;;5089432;28;20456;-89
2023/11/24 07:38:24;;;;;;;1.30;1.00;;;22.60;65.50;;;;;;5094476;28;20440;-83
2023/11/24 07:40:51;;;;;;;1.10;0.80;;;22.50;65.30;;;;;;5094764;28;20451;-84
2023/11/24 07:43:18;;;;;;;1.60;1.00;;;22.70;65.40;;;;;;5094681;28;20996;-84
2023/11/24 07:45:48;;;;;;;2.30;1.03;;;22.60;65.30;;;;;;5094553;28;20450;-84
2023/11/24 07:48:15;;;;;;;1.30;0.80;;;22.50;65.30;;;;;;5094661;28;20467;-85
2023/11/24 07:50:44;;;;;;;1.17;0.70;;;22.60;65.30;;;;;;5094434;28;20808;-82
2023/11/24 07:53:13;;;;;;;1.40;1.00;;;22.50;65.10;;;;;;5094512;28;20446;-82
2023/11/24 07:55:40;;;;;;;1.20;0.80;;;22.60;65.20;;;;;;5096606;28;20534;-85
2023/11/24 07:58:07;;;;;;;0.90;0.60;;;22.60;65.20;;;;;;5094614;28;20530;-88
2023/11/24 08:00:34;;;;;;;2.13;0.97;;;22.60;65.20;;;;;;5094034;28;20479;-84
2023/11/24 08:03:03;;;;;;;1.73;0.90;;;22.60;63.10;;;;;;5092894;28;20450;-84
2023/11/24 08:05:30;;;;;;;1.50;0.93;;;22.50;62.10;;;;;;5094022;28;20489;-94
2023/11/24 08:07:58;;;;;;;3.80;0.90;;;22.50;62.70;;;;;;5092814;28;20435;-83
2023/11/24 08:10:25;;;;;;;1.20;0.80;;;22.50;63.10;;;;;;5094303;28;20841;-84
2023/11/24 08:12:51;;;;;;;3.40;1.10;;;22.40;63.10;;;;;;5093997;28;20440;-84
2023/11/24 08:15:19;;;;;;;1.40;0.90;;;22.40;63.30;;;;;;5092031;28;20467;-84
2023/11/24 08:17:45;;;;;;;1.30;1.00;;;22.40;63.30;;;;;;5092275;28;20479;-84
2023/11/24 08:20:13;;;;;;;2.33;0.70;;;22.40;63.30;;;;;;5092173;28;20439;-84
2023/11/24 08:22:40;;;;;;;1.87;0.80;;;22.50;63.40;;;;;;5092301;28;20475;-90
2023/11/24 08:25:10;;;;;;;1.40;0.90;;;22.40;63.30;;;;;;5092618;28;20458;-84
2023/11/24 08:27:37;;;;;;;2.43;0.90;;;22.40;63.40;;;;;;5093221;28;20503;-84
2023/11/24 08:30:10;;;;;;;2.50;0.93;;;22.30;63.30;;;;;;5093355;28;20443;-84
2023/11/24 08:32:37;;;;;;;1.20;0.80;;;22.30;63.40;;;;;;5093725;28;20956;-84
2023/11/24 08:35:05;;;;;;;2.80;0.90;;;22.30;63.30;;;;;;5093845;28;20427;-84
2023/11/24 08:37:31;;;;;;;1.57;0.87;;;22.30;63.40;;;;;;5093587;28;20431;-84
2023/11/24 08:39:59;;;;;;;2.20;1.47;;;22.30;63.40;;;;;;5093701;28;20428;-84
2023/11/24 08:42:27;;;;;;;1.10;0.70;;;22.30;63.40;;;;;;5093564;28;20493;-84
2023/11/24 08:44:53;;;;;;;2.53;1.03;;;22.30;63.50;;;;;;5093638;28;20462;-84
2023/11/24 08:47:20;;;;;;;1.73;1.00;;;22.30;63.50;;;;;;5093473;28;20435;-84
2023/11/24 08:49:47;;;;;;;1.30;0.90;;;22.30;63.50;;;;;;5093437;28;20450;-84
2023/11/24 08:52:14;;;;;;;1.50;0.87;;;22.30;63.40;;;;;;5093378;28;20487;-84
2023/11/24 08:54:40;;;;;;;1.10;0.70;;;22.20;63.30;;;;;;5093400;28;20432;-84
2023/11/24 08:57:08;;;;;;;1.20;0.80;;;22.20;63.30;;;;;;5093393;28;20435;-87
2023/11/24 08:59:37;;;;;;;1.87;1.00;;;22.30;63.40;;;;;;5093128;28;20462;-84
2023/11/24 09:02:04;;;;;;;2.70;0.90;;;22.20;63.30;;;;;;5093354;28;20436;-84
2023/11/24 09:04:32;;;;;;;1.07;0.70;;;22.30;63.30;;;;;;5093526;28;20485;-84
2023/11/24 09:06:59;;;;;;;1.43;0.70;;;22.20;63.20;;;;;;5093275;28;20458;-84
2023/11/24 09:09:27;;;;;;;1.40;1.00;;;22.30;63.30;;;;;;5093240;28;20428;-84
2023/11/24 09:11:54;;;;;;;1.53;1.00;;;22.30;63.20;;;;;;5092180;28;20978;-84
2023/11/24 09:14:21;;;;;;;1.20;0.70;;;22.20;63.10;;;;;;5092412;28;20482;-84
2023/11/24 09:16:49;;;;;;;3.03;1.07;;;22.30;63.10;;;;;;5093106;28;20442;-87
2023/11/24 09:19:16;;;;;;;1.97;1.10;;;22.30;62.90;;;;;;5092651;28;20450;-82
2023/11/24 09:21:42;;;;;;;1.60;1.00;;;22.40;63.90;;;;;;5092916;28;20446;-90
2023/11/24 09:24:10;;;;;;;2.13;0.70;;;22.50;63.80;;;;;;5092889;28;20444;-91
2023/11/24 09:26:37;;;;;;;1.10;0.70;;;22.50;63.70;;;;;;5093025;28;20458;-82
2023/11/24 09:29:04;;;;;;;2.93;0.80;;;22.60;64.50;;;;;;5092807;28;20444;-82
2023/11/24 09:31:34;;;;;;;1.50;0.90;;;22.60;63.60;;;;;;5091757;28;20490;-82
2023/11/24 09:34:02;;;;;;;1.73;1.10;;;22.60;63.60;;;;;;5092926;28;20940;-82
2023/11/24 09:36:30;;;;;;;1.10;0.70;;;22.60;63.50;;;;;;5092978;28;20442;-82
2023/11/24 09:38:56;;;;;;;2.53;1.10;;;22.60;63.50;;;;;;5092960;28;20439;-82
2023/11/24 09:41:24;;;;;;;1.37;0.83;;;22.60;63.50;;;;;;5092134;28;20439;-82
2023/11/24 09:43:51;;;;;;;1.20;0.70;;;22.60;63.60;;;;;;5092874;28;20487;-82
2023/11/24 09:46:18;;;;;;;1.10;0.80;;;22.60;63.60;;;;;;5092902;28;20530;-84
2023/11/24 09:48:48;;;;;;;1.10;0.90;;;22.60;63.50;;;;;;5093028;28;20513;-82
2023/11/24 09:51:18;;;;;;;1.10;0.80;;;22.60;63.50;;;;;;5092914;28;20483;-82
2023/11/24 09:53:45;;;;;;;1.20;0.73;;;22.60;63.60;;;;;;5092802;28;20439;-82
2023/11/24 09:56:12;;;;;;;1.20;0.80;;;22.60;63.70;;;;;;5092770;28;20530;-82
2023/11/24 09:58:42;;;;;;;1.37;0.97;;;22.70;63.70;;;;;;5092691;28;20436;-82
2023/11/24 10:01:15;;;;;;;1.60;1.20;;;22.70;63.70;;;;;;5092760;28;20538;-82
2023/11/24 10:03:46;;;;;;;0.90;0.60;;;22.70;63.60;;;;;;5092976;28;20835;-82
2023/11/24 10:06:13;;;;;;;1.03;0.73;;;22.70;63.60;;;;;;5092892;28;20944;-82
2023/11/24 10:08:41;;;;;;;1.20;0.90;;;22.70;63.50;;;;;;5092781;28;20446;-82
2023/11/24 10:11:13;;;;;;;2.17;0.70;;;22.70;63.70;;;;;;5095266;28;20483;-82
2023/11/24 10:13:41;;;;;;;1.30;0.77;;;22.70;64.40;;;;;;5096081;28;20977;-82
2023/11/24 10:16:08;;;;;;;1.10;0.80;;;22.70;63.50;;;;;;5096257;28;20946;-82
2023/11/24 10:18:35;;;;;;;1.10;0.77;;;22.70;63.50;;;;;;5096352;28;20792;-82
2023/11/24 10:21:02;;;;;;;1.63;0.80;;;22.70;63.50;;;;;;5096379;28;20439;-82
2023/11/24 10:23:30;;;;;;;1.00;0.73;;;22.70;63.50;;;;;;5096249;28;20443;-88
2023/11/24 10:25:59;;;;;;;1.20;0.80;;;22.70;63.60;;;;;;5096188;28;20440;-90
2023/11/24 10:28:26;;;;;;;1.00;0.70;;;22.70;63.50;;;;;;5096081;28;20448;-82
2023/11/24 10:30:55;;;;;;;1.53;0.70;;;22.70;63.50;;;;;;5095950;28;20822;-82
2023/11/24 10:33:22;;;;;;;1.23;0.87;;;22.70;63.40;;;;;;5095861;28;20432;-83
2023/11/24 10:35:49;;;;;;;1.00;0.70;;;22.70;63.50;;;;;;5095922;28;20450;-82
2023/11/24 10:38:20;;;;;;;2.10;0.90;;;22.70;63.50;;;;;;5095883;28;20496;-82
2023/11/24 10:40:49;;;;;;;2.07;0.70;;;22.70;63.40;;;;;;5095976;28;20930;-82
2023/11/24 10:43:19;;;;;;;1.93;1.10;;;22.70;63.50;;;;;;5095835;28;20463;-82
2023/11/24 10:45:50;;;;;;;3.40;1.00;;;22.70;63.50;;;;;;5095721;28;20427;-82
2023/11/24 10:48:21;;;;;;;1.20;0.80;;;22.70;63.50;;;;;;5096036;28;20784;-85
2023/11/24 10:50:56;;;;;;;1.10;0.80;;;22.70;63.70;;;;;;5095712;28;20436;-82
2023/11/24 10:53:26;;;;;;;1.87;0.80;;;22.70;63.60;;;;;;5095601;28;20438;-82
2023/11/24 10:55:54;;;;;;;1.27;0.77;;;22.70;63.70;;;;;;5095592;28;20455;-82
2023/11/24 10:58:22;;;;;;;1.40;0.90;;;22.70;63.70;;;;;;5095606;28;20439;-82
2023/11/24 11:00:50;;;;;;;1.27;0.80;;;22.70;63.70;;;;;;5095373;28;20462;-82
2023/11/24 11:03:17;;;;;;;1.30;0.80;;;22.70;63.70;;;;;;5095633;28;20432;-89
2023/11/24 11:05:58;;;;;;;1.10;0.90;;;22.70;63.70;;;;;;5095347;28;20441;-82
2023/11/24 11:08:31;;;;;;;1.00;0.60;;;22.70;63.70;;;;;;5095369;28;20427;-81
2023/11/24 11:14:13;;;;;;;2.83;0.87;;;22.70;62.70;;;;;;5052054;28;20449;-85
2023/11/24 11:16:40;;;;;;;1.10;0.70;;;22.70;61.80;;;;;;5093046;28;20793;-85
2023/11/24 11:19:29;;;;;;;1.53;0.60;;;22.70;62.60;;;;;;5095381;28;20869;-86
2023/11/24 11:21:59;;;;;;;3.20;0.97;;;22.80;63.60;;;;;;5093124;28;20444;-89
2023/11/24 11:24:28;;;;;;;1.10;0.80;;;22.80;63.70;;;;;;5095374;28;20446;-88
2023/11/24 11:26:57;;;;;;;1.80;0.90;;;22.90;63.80;;;;;;5094982;28;20528;-87
2023/11/24 11:29:28;;;;;;;2.57;0.90;;;23.00;64.00;;;;;;5095037;28;20464;-91
2023/11/24 11:31:55;;;;;;;1.57;0.80;;;23.10;64.00;;;;;;5095147;28;20562;-92
2023/11/24 11:34:35;;;;;;;5.80;0.90;;;23.20;63.90;;;;;;5094599;28;20455;-91
2023/11/24 11:37:06;;;;;;;1.97;0.90;;;23.10;61.40;;;;;;5102822;22;20503;-88
2023/11/24 11:39:47;;;;;;;2.07;0.70;;;23.10;61.90;;;;;;5075148;28;20510;-89
2023/11/24 11:42:14;;;;;;;1.10;0.70;;;23.10;62.80;;;;;;5073086;28;20994;-91
2023/11/24 11:44:47;;;;;;;2.40;1.03;;;23.20;63.50;;;;;;5073090;28;20487;-85
2023/11/24 11:47:24;;;;;;;4.40;0.83;;;23.20;63.50;;;;;;5072501;28;20471;-86
2023/11/24 11:49:53;;;;;;;1.20;0.90;;;23.30;63.50;;;;;;5074121;28;20506;-86
2023/11/24 11:52:21;;;;;;;2.13;0.90;;;23.30;63.40;;;;;;5073503;28;20473;-86
2023/11/24 11:54:48;;;;;;;1.17;0.73;;;23.30;63.30;;;;;;5074131;28;20470;-87
2023/11/24 11:57:15;;;;;;;1.50;0.80;;;23.40;63.30;;;;;;5073584;28;20452;-91
2023/11/24 11:59:43;;;;;;;1.30;1.03;;;23.30;63.20;;;;;;5077396;28;20474;-87
2023/11/24 12:02:12;;;;;;;1.07;0.70;;;23.30;63.20;;;;;;5081713;28;20471;-85
2023/11/24 12:04:39;;;;;;;1.27;1.00;;;23.40;63.30;;;;;;5082415;28;20447;-96
2023/11/24 12:07:10;;;;;;;4.17;0.80;;;23.40;63.30;;;;;;5076479;28;20441;-95
2023/11/24 12:09:37;;;;;;;1.73;0.80;;;23.40;63.30;;;;;;5085038;28;20435;-95
2023/11/24 12:12:04;;;;;;;8.83;1.00;;;23.40;63.30;;;;;;5082826;28;20488;-85
2023/11/24 12:14:31;;;;;;;1.60;0.90;;;23.40;63.40;;;;;;5074012;28;20943;-95
2023/11/24 12:16:59;;;;;;;2.40;0.80;;;23.40;63.50;;;;;;5074442;28;20818;-95
2023/11/24 12:19:30;;;;;;;2.20;0.80;;;23.40;63.60;;;;;;5073946;28;20927;-84
2023/11/24 12:21:59;;;;;;;1.27;0.80;;;23.40;63.60;;;;;;5074333;28;20979;-84
2023/11/24 12:24:27;;;;;;;1.40;0.67;;;23.50;63.80;;;;;;5074299;28;20468;-83
2023/11/24 12:26:56;;;;;;;1.93;0.80;;;23.50;63.80;;;;;;5074413;28;20931;-83
2023/11/24 12:29:26;;;;;;;2.07;0.80;;;23.50;63.80;;;;;;5093084;28;20467;-83
2023/11/24 12:31:53;;;;;;;3.37;0.80;;;23.50;63.70;;;;;;5093525;28;20489;-83
2023/11/24 12:34:23;;;;;;;3.43;0.90;;;23.50;63.80;;;;;;5093444;28;20938;-89
2023/11/24 12:36:53;;;;;;;1.60;0.70;;;23.50;63.90;;;;;;5100383;28;20502;-84
2023/11/24 12:39:24;;;;;;;2.63;0.90;;;23.40;62.10;;;;;;5098192;28;20505;-84
2023/11/24 12:41:51;;;;;;;6.40;1.00;;;23.50;63.80;;;;;;5097145;28;20473;-84
2023/11/24 12:44:19;;;;;;;7.27;1.50;;;23.40;62.30;;;;;;5094959;28;20501;-84
2023/11/24 12:46:46;;;;;;;2.90;0.87;;;23.40;62.30;;;;;;5102025;28;20451;-84
2023/11/24 12:49:17;;;;;;;1.53;0.80;;;23.30;61.40;;;;;;5097549;28;20440;-86
2023/11/24 12:51:47;;;;;;;2.80;1.23;;;23.30;63.00;;;;;;5095099;28;20479;-84
2023/11/24 12:54:18;;;;;;;5.93;0.90;;;23.40;63.00;;;;;;5096232;28;20518;-84